createdAt,value
2022-08-12T00:00:53.121Z,20.88
2022-08-12T00:03:38.850Z,20.90
2022-08-12T00:06:25.513Z,20.95
2022-08-12T00:09:11.311Z,20.86
2022-08-12T00:11:57.223Z,20.92
2022-08-12T00:14:42.755Z,20.87
2022-08-12T00:17:28.266Z,20.85
2022-08-12T00:20:13.848Z,20.79
2022-08-12T00:23:00.171Z,20.70
2022-08-12T00:26:20.978Z,20.61
2022-08-12T00:29:10.179Z,20.56
2022-08-12T00:31:55.774Z,20.41
2022-08-12T00:34:41.061Z,20.47
2022-08-12T00:37:27.706Z,20.36
2022-08-12T00:40:14.576Z,20.32
2022-08-12T00:42:42.583Z,20.27
2022-08-12T00:45:10.367Z,20.22
2022-08-12T00:47:38.450Z,20.18
2022-08-12T00:50:06.749Z,20.18
2022-08-12T00:52:35.178Z,20.19
2022-08-12T00:55:04.272Z,20.12
2022-08-12T00:57:37.448Z,20.16
2022-08-12T01:00:14.688Z,20.12
2022-08-12T01:02:46.429Z,20.17
2022-08-12T01:05:34.995Z,20.16
2022-08-12T01:08:20.850Z,20.09
2022-08-12T01:11:06.979Z,20.06
2022-08-12T01:13:36.348Z,20.11
2022-08-12T01:16:05.817Z,20.08
2022-08-12T01:18:36.226Z,20.07
2022-08-12T01:21:27.756Z,20.06
2022-08-12T01:24:28.023Z,20.10
2022-08-12T01:26:59.851Z,20.12
2022-08-12T01:29:32.867Z,20.18
2022-08-12T01:32:05.523Z,20.29
2022-08-12T01:34:39.502Z,20.30
2022-08-12T01:37:09.086Z,20.35
2022-08-12T01:40:31.677Z,20.45
2022-08-12T01:42:43.398Z,20.48
2022-08-12T01:45:12.444Z,20.48
2022-08-12T01:47:54.578Z,20.47
2022-08-12T01:51:06.548Z,20.47
2022-08-12T01:53:51.697Z,20.31
2022-08-12T01:56:24.582Z,20.25
2022-08-12T01:59:15.762Z,20.32
2022-08-12T02:01:45.717Z,20.28
2022-08-12T02:04:43.327Z,20.31
2022-08-12T02:07:56.312Z,20.22
2022-08-12T02:10:49.121Z,20.23
2022-08-12T02:13:53.918Z,20.15
2022-08-12T02:16:39.116Z,20.14
2022-08-12T02:19:22.330Z,20.10
2022-08-12T02:22:30.579Z,20.07
2022-08-12T02:25:29.444Z,20.04
2022-08-12T02:27:56.935Z,20.06
2022-08-12T02:30:26.822Z,20.07
2022-08-12T02:33:09.613Z,20.09
2022-08-12T02:35:39.645Z,20.02
2022-08-12T02:38:09.330Z,20.01
2022-08-12T02:40:38.608Z,20.04
2022-08-12T02:43:27.379Z,20.07
2022-08-12T02:46:14.145Z,20.11
2022-08-12T02:48:53.635Z,20.13
2022-08-12T02:51:24.391Z,20.09
2022-08-12T02:54:03.352Z,20.06
2022-08-12T02:56:50.684Z,20.04
2022-08-12T02:59:21.392Z,20.09
2022-08-12T03:01:50.400Z,20.08
2022-08-12T03:04:44.074Z,20.11
2022-08-12T03:07:49.298Z,20.13
2022-08-12T03:10:36.948Z,20.20
2022-08-12T03:13:07.252Z,20.18
2022-08-12T03:15:35.798Z,20.22
2022-08-12T03:18:26.260Z,20.22
2022-08-12T03:20:57.124Z,20.27
2022-08-12T03:23:28.932Z,20.38
2022-08-12T03:26:02.475Z,20.55
2022-08-12T03:28:50.517Z,20.62
2022-08-12T03:31:20.923Z,20.88
2022-08-12T03:34:02.408Z,21.20
2022-08-12T03:36:35.674Z,21.56
2022-08-12T03:39:18.378Z,21.79
2022-08-12T03:42:07.664Z,22.04
2022-08-12T03:45:14.389Z,22.14
2022-08-12T03:48:33.070Z,22.31
2022-08-12T03:51:20.357Z,22.51
2022-08-12T03:54:06.985Z,22.59
2022-08-12T03:56:54.044Z,22.66
2022-08-12T03:59:39.304Z,22.88
2022-08-12T04:02:08.011Z,22.96
2022-08-12T04:04:35.899Z,22.95
2022-08-12T04:07:07.849Z,23.22
2022-08-12T04:09:35.482Z,23.44
2022-08-12T04:12:22.685Z,23.67
2022-08-12T04:14:57.036Z,23.88
2022-08-12T04:17:28.054Z,24.33
2022-08-12T04:19:56.607Z,24.79
2022-08-12T04:22:26.167Z,25.07
2022-08-12T04:24:54.287Z,25.56
2022-08-12T04:27:21.156Z,25.92
2022-08-12T04:30:16.686Z,26.11
2022-08-12T04:32:37.638Z,26.35
2022-08-12T04:35:07.478Z,26.52
2022-08-12T04:37:58.535Z,26.47
2022-08-12T04:40:28.089Z,26.67
2022-08-12T04:42:56.005Z,26.65
2022-08-12T04:45:22.958Z,26.82
2022-08-12T04:47:50.046Z,26.92
2022-08-12T04:50:33.825Z,27.14
2022-08-12T04:53:05.801Z,27.64
2022-08-12T04:55:33.585Z,27.52
2022-08-12T04:58:00.449Z,27.10
2022-08-12T05:00:27.766Z,26.85
2022-08-12T05:02:54.995Z,26.28
2022-08-12T05:05:23.652Z,26.16
2022-08-12T05:07:53.988Z,25.73
2022-08-12T05:10:33.089Z,25.46
2022-08-12T05:13:05.446Z,25.38
2022-08-12T05:15:32.318Z,25.28
2022-08-12T05:17:59.706Z,25.21
2022-08-12T05:20:29.482Z,25.57
2022-08-12T05:23:13.898Z,25.77
2022-08-12T05:25:43.372Z,25.88
2022-08-12T05:28:10.871Z,25.72
2022-08-12T05:30:37.665Z,25.62
2022-08-12T05:33:05.832Z,25.56
2022-08-12T05:35:42.925Z,25.85
2022-08-12T05:38:30.483Z,26.01
2022-08-12T05:40:58.154Z,26.02
2022-08-12T05:43:24.994Z,26.07
2022-08-12T05:45:51.934Z,26.16
2022-08-12T05:48:19.200Z,25.93
2022-08-12T05:50:46.676Z,26.05
2022-08-12T05:53:13.582Z,25.97
2022-08-12T05:55:40.649Z,25.92
2022-08-12T05:58:08.200Z,26.11
2022-08-12T06:00:35.849Z,26.84
2022-08-12T06:03:04.803Z,27.62
2022-08-12T06:05:52.715Z,28.29
2022-08-12T06:08:22.837Z,28.52
2022-08-12T06:10:50.531Z,28.72
2022-08-12T06:13:28.222Z,29.04
2022-08-12T06:18:29.936Z,29.38
2022-08-12T06:21:01.758Z,29.48
2022-08-12T06:23:29.797Z,29.51
2022-08-12T06:25:57.199Z,29.06
2022-08-12T06:28:24.112Z,29.17
2022-08-12T06:31:22.338Z,29.02
2022-08-12T06:33:55.827Z,28.83
2022-08-12T06:36:29.922Z,28.72
2022-08-12T06:38:59.603Z,28.80
2022-08-12T06:42:30.842Z,29.00
2022-08-12T06:44:32.641Z,29.71
2022-08-12T06:46:59.903Z,30.22
2022-08-12T06:49:28.448Z,31.13
2022-08-12T06:51:56.681Z,31.75
2022-08-12T06:54:31.057Z,32.11
2022-08-12T06:57:04.653Z,32.40
2022-08-12T06:59:32.515Z,32.05
2022-08-12T07:01:59.454Z,31.31
2022-08-12T07:04:36.222Z,30.41
2022-08-12T07:07:13.650Z,29.72
2022-08-12T07:10:04.156Z,29.69
2022-08-12T07:12:29.906Z,29.67
2022-08-12T07:14:58.323Z,29.73
2022-08-12T07:17:26.501Z,29.13
2022-08-12T07:19:55.511Z,29.02
2022-08-12T07:22:24.847Z,28.58
2022-08-12T07:25:11.542Z,28.62
2022-08-12T07:27:42.822Z,28.11
2022-08-12T07:30:10.517Z,28.16
2022-08-12T07:32:37.378Z,28.03
2022-08-12T07:35:04.698Z,27.89
2022-08-12T07:37:31.614Z,27.64
2022-08-12T07:39:59.538Z,27.65
2022-08-12T07:42:27.831Z,27.65
2022-08-12T07:44:56.061Z,27.70
2022-08-12T07:47:23.770Z,27.61
2022-08-12T07:50:04.878Z,27.90
2022-08-12T07:52:38.597Z,27.59
2022-08-12T07:55:06.242Z,27.42
2022-08-12T07:57:35.915Z,27.55
2022-08-12T08:00:05.367Z,27.88
2022-08-12T08:02:37.195Z,28.39
2022-08-12T08:05:05.047Z,28.63
2022-08-12T08:07:31.932Z,28.88
2022-08-12T08:10:00.604Z,29.45
2022-08-12T08:12:47.562Z,29.78
2022-08-12T08:15:15.770Z,30.86
2022-08-12T08:17:57.833Z,30.91
2022-08-12T08:20:28.791Z,30.55
2022-08-12T08:22:59.988Z,31.02
2022-08-12T08:25:35.984Z,31.40
2022-08-12T08:28:12.936Z,32.03
2022-08-12T08:30:43.941Z,31.66
2022-08-12T08:33:23.580Z,31.36
2022-08-12T08:36:00.657Z,31.36
2022-08-12T08:38:33.332Z,31.48
2022-08-12T08:42:15.682Z,31.41
2022-08-12T08:44:11.307Z,30.67
2022-08-12T08:46:39.781Z,29.95
2022-08-12T08:49:07.055Z,29.69
2022-08-12T08:51:33.963Z,29.43
2022-08-12T08:54:00.939Z,29.63
2022-08-12T08:56:30.944Z,29.40
2022-08-12T08:58:58.014Z,29.19
2022-08-12T09:01:26.468Z,29.34
2022-08-12T09:05:07.832Z,29.69
2022-08-12T09:10:02.300Z,29.23
2022-08-12T09:12:55.095Z,29.63
2022-08-12T09:15:35.338Z,29.83
2022-08-12T09:18:08.459Z,30.24
2022-08-12T09:20:53.169Z,30.39
2022-08-12T09:24:00.216Z,30.55
2022-08-12T09:28:57.247Z,30.46
2022-08-12T09:32:03.780Z,30.69
2022-08-12T09:34:26.572Z,31.31
2022-08-12T09:37:02.582Z,31.58
2022-08-12T09:40:03.158Z,31.66
2022-08-12T09:43:11.086Z,32.07
2022-08-12T09:46:11.126Z,32.76
2022-08-12T09:48:24.565Z,32.60
2022-08-12T09:50:55.086Z,32.28
2022-08-12T09:53:29.241Z,32.25
2022-08-12T09:56:33.366Z,32.65
2022-08-12T09:58:59.696Z,33.65
2022-08-12T10:01:35.392Z,34.89
2022-08-12T10:04:19.787Z,36.08
2022-08-12T10:06:55.316Z,36.69
2022-08-12T10:09:56.944Z,35.69
2022-08-12T10:12:32.736Z,35.42
2022-08-12T10:15:00.180Z,34.47
2022-08-12T10:17:27.054Z,34.55
2022-08-12T10:19:53.842Z,34.46
2022-08-12T10:22:49.138Z,34.74
2022-08-12T10:26:34.221Z,34.81
2022-08-12T10:28:36.199Z,35.32
2022-08-12T10:31:05.797Z,35.82
2022-08-12T10:33:55.684Z,36.20
2022-08-12T10:36:39.786Z,36.44
2022-08-12T10:40:00.013Z,36.32
2022-08-12T10:42:15.309Z,35.42
2022-08-12T10:44:46.865Z,34.39
2022-08-12T10:48:01.587Z,34.15
2022-08-12T10:50:32.598Z,33.77
2022-08-12T10:52:54.322Z,33.01
2022-08-12T10:55:21.177Z,32.12
2022-08-12T10:58:14.859Z,31.23
2022-08-12T11:00:55.527Z,30.49
2022-08-12T11:04:18.743Z,30.18
2022-08-12T11:07:07.468Z,29.59
2022-08-12T11:09:02.121Z,28.80
2022-08-12T11:12:34.966Z,28.24
2022-08-12T11:14:49.516Z,27.69
2022-08-12T11:17:34.022Z,27.23
2022-08-12T11:20:05.351Z,26.91
2022-08-12T11:22:32.493Z,26.64
2022-08-12T11:24:59.431Z,26.44
2022-08-12T11:27:26.320Z,26.27
2022-08-12T11:30:02.529Z,26.11
2022-08-12T11:32:38.807Z,26.01
2022-08-12T11:35:06.927Z,25.93
2022-08-12T11:37:58.250Z,25.92
2022-08-12T11:40:22.962Z,25.92
2022-08-12T11:42:50.221Z,25.97
2022-08-12T11:45:19.674Z,26.07
2022-08-12T11:47:46.906Z,26.21
2022-08-12T11:50:19.108Z,26.35
2022-08-12T11:52:56.422Z,26.52
2022-08-12T11:55:25.322Z,26.49
2022-08-12T11:58:33.861Z,26.48
2022-08-12T12:03:43.885Z,26.50
2022-08-12T12:06:17.893Z,26.52
2022-08-12T12:08:52.781Z,26.72
2022-08-12T12:11:21.648Z,26.97
2022-08-12T12:14:08.843Z,27.10
2022-08-12T12:16:39.532Z,27.23
2022-08-12T12:19:06.948Z,27.42
2022-08-12T12:21:48.515Z,27.44
2022-08-12T12:24:21.825Z,27.24
2022-08-12T12:27:00.745Z,27.03
2022-08-12T12:30:19.724Z,27.01
2022-08-12T12:32:29.062Z,27.08
2022-08-12T12:35:14.516Z,27.05
2022-08-12T12:38:04.190Z,26.86
2022-08-12T12:40:39.801Z,26.80
2022-08-12T12:43:07.633Z,26.77
2022-08-12T12:45:36.421Z,26.83
2022-08-12T12:48:06.151Z,26.84
2022-08-12T12:50:45.274Z,26.86
2022-08-12T12:54:07.771Z,26.92
2022-08-12T12:57:16.848Z,27.11
2022-08-12T13:00:08.385Z,27.36
2022-08-12T13:02:40.376Z,27.54
2022-08-12T13:05:13.699Z,27.80
2022-08-12T13:07:54.089Z,28.07
2022-08-12T13:10:24.075Z,28.21
2022-08-12T13:12:58.022Z,28.35
2022-08-12T13:15:24.867Z,28.13
2022-08-12T13:18:11.891Z,28.25
2022-08-12T13:20:43.021Z,28.28
2022-08-12T13:23:36.447Z,28.29
2022-08-12T13:25:59.169Z,28.46
2022-08-12T13:28:31.084Z,28.46
2022-08-12T13:30:59.507Z,28.47
2022-08-12T13:34:33.620Z,28.52
2022-08-12T13:36:20.420Z,28.60
2022-08-12T13:38:54.382Z,28.83
2022-08-12T13:41:33.733Z,28.95
2022-08-12T13:44:02.167Z,29.02
2022-08-12T13:46:28.982Z,29.05
2022-08-12T13:48:56.663Z,29.07
2022-08-12T13:51:24.801Z,29.04
2022-08-12T13:54:11.607Z,29.39
2022-08-12T13:56:40.851Z,29.47
2022-08-12T13:59:08.646Z,29.37
2022-08-12T14:01:41.045Z,29.21
2022-08-12T14:04:12.389Z,28.91
2022-08-12T14:06:40.841Z,29.12
2022-08-12T14:09:17.307Z,28.93
2022-08-12T14:11:54.809Z,28.65
2022-08-12T14:14:31.525Z,28.71
2022-08-12T14:17:10.326Z,28.65
2022-08-12T14:19:48.249Z,28.66
2022-08-12T14:22:21.126Z,28.69
2022-08-12T14:24:53.271Z,28.95
2022-08-12T14:28:04.489Z,29.12
2022-08-12T14:30:15.725Z,29.31
2022-08-12T14:32:45.309Z,29.52
2022-08-12T14:35:12.643Z,29.68
2022-08-12T14:37:56.781Z,29.99
2022-08-12T14:40:28.696Z,30.20
2022-08-12T14:42:58.744Z,30.32
2022-08-12T14:45:45.482Z,30.50
2022-08-12T14:48:15.951Z,30.27
2022-08-12T14:51:03.307Z,30.11
2022-08-12T14:59:27.202Z,28.32
2022-08-12T15:02:21.336Z,27.45
2022-08-12T15:04:56.217Z,26.89
2022-08-12T15:07:34.205Z,26.53
2022-08-12T15:10:14.696Z,26.41
2022-08-12T15:12:52.738Z,26.17
2022-08-12T15:15:21.727Z,25.99
2022-08-12T15:17:59.054Z,25.87
2022-08-12T15:20:37.927Z,26.01
2022-08-12T15:23:18.067Z,25.98
2022-08-12T15:26:02.633Z,26.18
2022-08-12T15:28:37.166Z,26.35
2022-08-12T15:31:09.581Z,26.53
2022-08-12T15:33:58.031Z,26.73
2022-08-12T15:36:55.032Z,26.87
2022-08-12T15:39:16.554Z,27.03
2022-08-12T15:41:49.182Z,27.17
2022-08-12T15:44:42.097Z,27.26
2022-08-12T15:47:06.151Z,27.39
2022-08-12T15:49:43.076Z,27.50
2022-08-12T15:52:29.410Z,27.55
2022-08-12T15:55:06.002Z,27.42
2022-08-12T15:57:41.671Z,27.33
2022-08-12T16:00:29.014Z,27.09
2022-08-12T16:02:58.568Z,26.99
2022-08-12T16:06:11.458Z,26.81
2022-08-12T16:08:24.367Z,26.67
2022-08-12T16:10:56.807Z,26.51
2022-08-12T16:13:34.751Z,26.43
2022-08-12T16:16:12.454Z,26.40
2022-08-12T16:18:52.112Z,26.15
2022-08-12T16:21:52.718Z,26.04
2022-08-12T16:24:08.664Z,25.92
2022-08-12T16:26:40.745Z,25.84
2022-08-12T16:29:15.321Z,25.66
2022-08-12T16:31:44.787Z,25.44
2022-08-12T16:34:25.882Z,25.30
2022-08-12T16:37:07.538Z,25.27
2022-08-12T16:40:00.318Z,25.07
2022-08-12T16:42:28.468Z,24.94
2022-08-12T16:44:59.927Z,24.81
2022-08-12T16:47:31.454Z,24.75
2022-08-12T16:50:31.310Z,24.58
2022-08-12T16:53:02.299Z,24.51
2022-08-12T16:55:42.495Z,24.46
2022-08-12T16:58:27.867Z,24.40
2022-08-12T17:00:55.948Z,24.32
2022-08-12T17:03:28.930Z,24.32
2022-08-12T17:05:57.616Z,24.28
2022-08-12T17:08:30.235Z,24.26
2022-08-12T17:10:57.415Z,24.24
2022-08-12T17:13:26.371Z,24.24
2022-08-12T17:16:05.716Z,24.20
2022-08-12T17:18:43.002Z,24.13
2022-08-12T17:21:41.633Z,24.14
2022-08-12T17:24:15.337Z,24.12
2022-08-12T17:26:49.404Z,24.10
2022-08-12T17:29:24.341Z,24.09
2022-08-12T17:32:12.315Z,24.00
2022-08-12T17:34:58.663Z,24.06
2022-08-12T17:37:28.019Z,24.03
2022-08-12T17:40:15.016Z,24.01
2022-08-12T17:42:47.872Z,23.93
2022-08-12T17:45:21.475Z,24.00
2022-08-12T17:48:01.042Z,24.11
2022-08-12T17:50:34.265Z,24.20
2022-08-12T17:53:03.224Z,24.24
2022-08-12T17:55:44.763Z,24.17
2022-08-12T17:58:16.641Z,24.26
2022-08-12T18:00:50.681Z,24.21
2022-08-12T18:04:04.912Z,24.12
2022-08-12T18:06:13.969Z,24.07
2022-08-12T18:08:54.280Z,24.01
2022-08-12T18:12:06.519Z,23.98
2022-08-12T18:14:32.081Z,23.97
2022-08-12T18:17:01.216Z,24.00
2022-08-12T18:19:48.550Z,24.01
2022-08-12T18:22:30.775Z,24.00
2022-08-12T18:25:04.730Z,24.00
2022-08-12T18:27:44.224Z,24.02
2022-08-12T18:30:20.856Z,24.07
2022-08-12T18:33:05.220Z,24.01
2022-08-12T18:35:47.654Z,23.92
2022-08-12T18:38:22.678Z,23.96
2022-08-12T18:41:21.403Z,23.98
2022-08-12T18:44:07.848Z,23.88
2022-08-12T18:46:53.798Z,23.90
2022-08-12T18:49:33.343Z,23.96
2022-08-12T18:52:05.686Z,24.02
2022-08-12T18:54:52.950Z,23.87
2022-08-12T18:58:06.332Z,23.89
2022-08-12T19:00:25.262Z,23.82
2022-08-12T19:02:53.800Z,23.88
2022-08-12T19:05:23.560Z,23.87
2022-08-12T19:08:11.659Z,23.85
2022-08-12T19:10:49.948Z,23.84
2022-08-12T19:13:37.721Z,23.89
2022-08-12T19:16:11.355Z,23.84
2022-08-12T19:18:44.626Z,23.82
2022-08-12T19:21:17.047Z,23.74
2022-08-12T19:24:08.182Z,23.66
2022-08-12T19:26:36.725Z,23.57
2022-08-12T19:29:07.619Z,23.56
2022-08-12T19:31:55.603Z,23.53
2022-08-12T19:35:53.776Z,23.58
2022-08-12T19:38:02.584Z,23.63
2022-08-12T19:40:31.525Z,23.66
2022-08-12T19:43:20.023Z,23.69
2022-08-12T19:45:56.476Z,23.60
2022-08-12T19:48:30.407Z,23.54
2022-08-12T19:50:58.125Z,23.53
2022-08-12T19:53:27.431Z,23.46
2022-08-12T19:55:57.279Z,23.41
2022-08-12T19:58:28.294Z,23.36
2022-08-12T20:00:56.494Z,23.32
2022-08-12T20:03:40.375Z,23.28
2022-08-12T20:06:21.787Z,23.26
2022-08-12T20:08:55.879Z,23.24
2022-08-12T20:12:12.791Z,23.23
2022-08-12T20:14:17.991Z,23.25
2022-08-12T20:16:52.830Z,23.31
2022-08-12T20:19:52.754Z,23.28
2022-08-12T20:22:24.495Z,23.35
2022-08-12T20:25:08.697Z,23.31
2022-08-12T20:28:02.894Z,23.37
2022-08-12T20:30:37.596Z,23.39
2022-08-12T20:33:18.368Z,23.43
2022-08-12T20:36:14.071Z,23.55
2022-08-12T20:38:38.337Z,23.62
2022-08-12T20:41:17.425Z,23.67
2022-08-12T20:43:52.208Z,23.73
2022-08-12T20:46:21.307Z,23.82
2022-08-12T20:48:55.334Z,23.88
2022-08-12T20:51:55.382Z,23.92
2022-08-12T20:54:16.572Z,23.98
2022-08-12T20:56:45.357Z,23.99
2022-08-12T20:59:20.144Z,23.95
2022-08-12T21:01:49.033Z,24.02
2022-08-12T21:04:36.971Z,24.04
2022-08-12T21:07:09.697Z,24.04
2022-08-12T21:09:40.814Z,24.08
2022-08-12T21:12:28.135Z,24.11
2022-08-12T21:15:23.327Z,24.11
2022-08-12T21:18:15.542Z,24.07
2022-08-12T21:20:52.501Z,24.01
2022-08-12T21:23:23.897Z,24.00
2022-08-12T21:25:56.129Z,24.00
2022-08-12T21:28:27.821Z,23.97
2022-08-12T21:32:34.847Z,24.01
2022-08-12T21:34:07.569Z,24.11
2022-08-12T21:36:49.450Z,24.10
2022-08-12T21:39:27.900Z,24.07
2022-08-12T21:42:06.621Z,24.15
2022-08-12T21:45:46.240Z,24.18
2022-08-12T21:47:23.558Z,24.08
2022-08-12T21:50:03.356Z,23.95
2022-08-12T21:52:34.980Z,23.82
2022-08-12T21:55:08.372Z,23.70
2022-08-12T21:58:02.630Z,23.51
2022-08-12T22:00:34.223Z,23.08
2022-08-12T22:04:01.531Z,22.60
2022-08-12T22:06:31.481Z,22.23
2022-08-12T22:09:16.670Z,21.83
2022-08-12T22:11:56.678Z,21.53
2022-08-12T22:14:30.327Z,21.21
2022-08-12T22:16:58.694Z,21.15
2022-08-12T22:19:27.692Z,20.98
2022-08-12T22:21:58.310Z,20.82
2022-08-12T22:24:29.893Z,20.81
2022-08-12T22:26:59.644Z,20.66
2022-08-12T22:30:04.019Z,20.57
2022-08-12T22:32:31.033Z,20.53
2022-08-12T22:35:22.413Z,20.51
2022-08-12T22:37:53.643Z,20.48
2022-08-12T22:40:22.856Z,20.46
2022-08-12T22:43:19.993Z,20.42
2022-08-12T22:46:10.142Z,20.36
2022-08-12T22:48:37.159Z,20.32
2022-08-12T22:51:19.450Z,20.29
2022-08-12T22:53:49.347Z,20.25
2022-08-12T22:56:19.044Z,20.24
2022-08-12T22:58:47.308Z,20.22
2022-08-12T23:01:50.171Z,20.19
2022-08-12T23:04:02.948Z,20.16
2022-08-12T23:06:30.021Z,20.14
2022-08-12T23:08:57.019Z,20.11
2022-08-12T23:11:25.391Z,20.10
2022-08-12T23:14:03.477Z,20.08
2022-08-12T23:16:34.182Z,20.06
2022-08-12T23:19:11.035Z,20.05
2022-08-12T23:22:06.603Z,20.02
2022-08-12T23:24:54.103Z,20.01
2022-08-12T23:27:51.851Z,20.01
2022-08-12T23:30:32.444Z,19.99
2022-08-12T23:33:19.766Z,19.94
2022-08-12T23:36:02.600Z,19.87
2022-08-12T23:38:32.228Z,19.77
2022-08-12T23:41:02.038Z,19.82
2022-08-12T23:43:39.076Z,19.79
2022-08-12T23:46:18.693Z,19.83
2022-08-12T23:48:47.925Z,19.86
2022-08-12T23:51:22.793Z,19.87
2022-08-12T23:54:00.064Z,19.90
2022-08-12T23:56:33.526Z,19.92
2022-08-12T23:59:05.976Z,19.94
